Time;durP1;ratioP1;P1;durP2;ratioP2;P2;SDS_P1;SDS_P2;PMS_P1;PMS_P2;Temp;Humidity;BMP_temperature;BMP_pressure;BME280_temperature;BME280_humidity;BME280_pressure;Samples;Min_cycle;Max_cycle;Signal;HPM_P1;HPM_P2
2023/06/21 00:00:58;;;;;;;29.30;24.50;;;;;;;;;;4954273;28;20046;-90
2023/06/21 00:03:25;;;;;;;29.58;23.67;;;;;;;;;;4961846;28;20429;-91
2023/06/21 00:05:51;;;;;;;32.60;25.77;;;;;;;;;;4975596;28;20046;-92
2023/06/21 00:08:17;;;;;;;31.73;25.40;;;;;;;;;;4979676;28;20077;-91
2023/06/21 00:10:44;;;;;;;35.45;27.92;;;;;;;;;;4958963;28;20051;-92
2023/06/21 00:13:10;;;;;;;32.42;27.25;;;;;;;;;;4978324;28;20092;-92
2023/06/21 00:15:36;;;;;;;34.00;26.85;;;;;;;;;;4980237;28;20098;-92
2023/06/21 00:18:03;;;;;;;30.70;25.35;;;;;;;;;;4980173;28;20483;-93
2023/06/21 00:20:29;;;;;;;31.27;26.88;;;;;;;;;;4965316;28;20039;-93
2023/06/21 00:22:58;;;;;;;39.45;30.23;;;;;;;;;;4964879;28;20050;-92
2023/06/21 00:25:27;;;;;;;36.42;29.02;;;;;;;;;;4963224;28;20038;-93
2023/06/21 00:27:53;;;;;;;33.63;28.23;;;;;;;;;;4984513;28;20042;-93
2023/06/21 00:30:19;;;;;;;39.08;29.75;;;;;;;;;;4962166;28;20046;-92
2023/06/21 00:32:45;;;;;;;28.38;24.80;;;;;;;;;;4961441;28;20169;-93
2023/06/21 00:35:11;;;;;;;33.65;27.67;;;;;;;;;;4961324;28;20046;-92
2023/06/21 00:37:37;;;;;;;33.03;26.75;;;;;;;;;;4965688;28;20058;-92
2023/06/21 00:40:07;;;;;;;35.58;27.10;;;;;;;;;;4999070;28;20073;-92
2023/06/21 00:42:36;;;;;;;30.80;26.15;;;;;;;;;;4965194;28;20119;-92
2023/06/21 00:45:02;;;;;;;34.03;26.60;;;;;;;;;;4960320;28;20046;-91
2023/06/21 00:47:35;;;;;;;33.53;26.20;;;;;;;;;;4960402;28;20165;-92
2023/06/21 00:50:04;;;;;;;31.77;26.23;;;;;;;;;;4963519;28;20050;-91
2023/06/21 00:52:33;;;;;;;29.00;24.67;;;;;;;;;;4964251;28;20137;-92
2023/06/21 00:54:59;;;;;;;33.03;26.73;;;;;;;;;;4964270;28;20141;-93
2023/06/21 00:57:28;;;;;;;27.50;23.90;;;;;;;;;;4965468;28;20563;-92
2023/06/21 00:59:57;;;;;;;31.67;24.52;;;;;;;;;;4961997;28;20410;-93
2023/06/21 01:02:23;;;;;;;28.00;23.70;;;;;;;;;;4979668;28;20042;-92
2023/06/21 01:04:49;;;;;;;27.52;21.88;;;;;;;;;;4962824;28;20046;-93
2023/06/21 01:07:29;;;;;;;31.77;24.92;;;;;;;;;;4963923;28;20045;-92
2023/06/21 01:10:33;;;;;;;28.70;23.73;;;;;;;;;;4961880;28;20172;-93
2023/06/21 01:13:06;;;;;;;28.83;23.60;;;;;;;;;;5005868;28;20056;-93
2023/06/21 01:15:59;;;;;;;26.70;21.83;;;;;;;;;;4971795;28;20053;-92
2023/06/21 01:18:29;;;;;;;29.75;23.85;;;;;;;;;;4956232;28;20129;-91
2023/06/21 01:21:03;;;;;;;25.75;22.10;;;;;;;;;;4988297;28;20050;-92
2023/06/21 01:23:36;;;;;;;26.40;22.05;;;;;;;;;;4988319;28;20050;-93
2023/06/21 01:26:11;;;;;;;24.42;20.83;;;;;;;;;;4963253;28;20062;-94
2023/06/21 01:28:57;;;;;;;24.98;20.60;;;;;;;;;;4965349;28;20502;-92
2023/06/21 01:31:30;;;;;;;23.33;20.38;;;;;;;;;;4978604;28;20524;-92
2023/06/21 01:34:00;;;;;;;28.67;22.52;;;;;;;;;;4971204;28;20475;-92
2023/06/21 01:36:26;;;;;;;28.63;22.17;;;;;;;;;;4963410;28;20282;-92
2023/06/21 01:38:54;;;;;;;24.48;21.77;;;;;;;;;;4960352;28;20073;-93
2023/06/21 01:41:29;;;;;;;30.48;23.00;;;;;;;;;;4964079;28;20042;-92
2023/06/21 01:43:56;;;;;;;26.27;21.52;;;;;;;;;;4962219;28;20050;-91
2023/06/21 01:46:23;;;;;;;26.63;21.95;;;;;;;;;;4977370;28;20046;-93
2023/06/21 01:48:53;;;;;;;25.92;21.52;;;;;;;;;;4963180;28;20516;-93
2023/06/21 01:51:23;;;;;;;27.27;22.38;;;;;;;;;;4978975;28;20078;-93
2023/06/21 01:53:49;;;;;;;29.25;22.05;;;;;;;;;;4956423;28;20053;-91
2023/06/21 01:56:21;;;;;;;27.42;21.77;;;;;;;;;;4962479;28;20058;-92
2023/06/21 01:58:47;;;;;;;28.45;22.92;;;;;;;;;;4960195;28;20097;-91
2023/06/21 02:01:14;;;;;;;25.52;21.83;;;;;;;;;;4960317;28;20045;-93
2023/06/21 02:03:41;;;;;;;30.48;23.48;;;;;;;;;;4971316;28;20135;-93
2023/06/21 02:06:20;;;;;;;30.53;23.83;;;;;;;;;;4965155;28;20046;-92
2023/06/21 02:08:46;;;;;;;38.17;23.95;;;;;;;;;;4960439;28;20050;-92
2023/06/21 02:11:13;;;;;;;31.13;24.23;;;;;;;;;;4984599;28;20054;-93
2023/06/21 02:13:39;;;;;;;29.02;23.00;;;;;;;;;;4964847;28;20057;-91
2023/06/21 02:16:08;;;;;;;30.83;24.63;;;;;;;;;;4966517;28;20038;-91
2023/06/21 02:18:34;;;;;;;32.45;25.83;;;;;;;;;;4979491;28;20051;-92
2023/06/21 02:21:01;;;;;;;32.53;25.80;;;;;;;;;;4991282;28;20529;-93
2023/06/21 02:23:39;;;;;;;28.88;24.90;;;;;;;;;;4969272;28;20506;-91
2023/06/21 02:26:05;;;;;;;34.15;27.73;;;;;;;;;;4965210;28;20046;-92
2023/06/21 02:28:31;;;;;;;36.42;28.55;;;;;;;;;;4977914;28;20049;-93
2023/06/21 02:30:57;;;;;;;32.70;27.25;;;;;;;;;;4965510;28;20039;-92
2023/06/21 02:33:23;;;;;;;34.67;28.05;;;;;;;;;;4960463;28;20520;-94
2023/06/21 02:35:52;;;;;;;40.17;29.10;;;;;;;;;;4960323;28;21159;-92
2023/06/21 02:38:19;;;;;;;38.72;29.63;;;;;;;;;;4964275;28;20058;-94
2023/06/21 02:40:51;;;;;;;39.63;30.55;;;;;;;;;;4984802;28;20057;-94
2023/06/21 02:43:17;;;;;;;41.72;30.67;;;;;;;;;;4980365;28;20250;-93
2023/06/21 02:45:46;;;;;;;39.22;31.90;;;;;;;;;;4973511;28;20048;-94
2023/06/21 02:48:12;;;;;;;44.17;32.92;;;;;;;;;;4965011;28;20042;-94
2023/06/21 02:50:41;;;;;;;42.35;34.40;;;;;;;;;;4963458;28;20062;-92
2023/06/21 02:53:07;;;;;;;46.38;34.63;;;;;;;;;;4966653;28;20081;-91
2023/06/21 02:55:45;;;;;;;48.65;36.22;;;;;;;;;;4962179;28;20088;-92
2023/06/21 02:58:11;;;;;;;48.10;37.80;;;;;;;;;;4969498;28;20050;-92
2023/06/21 03:00:40;;;;;;;46.00;36.45;;;;;;;;;;4961542;28;20462;-93
2023/06/21 03:03:10;;;;;;;48.45;38.40;;;;;;;;;;4965727;28;20042;-94
2023/06/21 03:05:39;;;;;;;50.33;39.60;;;;;;;;;;4961349;28;20042;-92
2023/06/21 03:08:09;;;;;;;49.25;39.67;;;;;;;;;;4966353;28;20111;-93
2023/06/21 03:10:41;;;;;;;56.22;42.35;;;;;;;;;;4963208;28;20129;-94
2023/06/21 03:13:07;;;;;;;54.80;41.05;;;;;;;;;;4976278;28;20050;-91
2023/06/21 03:15:41;;;;;;;61.35;44.78;;;;;;;;;;4981044;28;20451;-91
2023/06/21 03:18:07;;;;;;;58.63;42.70;;;;;;;;;;4966472;28;20046;-93
2023/06/21 03:20:35;;;;;;;56.58;43.50;;;;;;;;;;4964459;28;20042;-91
2023/06/21 03:23:02;;;;;;;;;;;;;;;;;;4964399;28;20469;-93
2023/06/21 03:25:28;;;;;;;68.32;47.42;;;;;;;;;;4960520;28;20298;-92
2023/06/21 03:27:54;;;;;;;66.47;47.60;;;;;;;;;;4965328;28;20046;-92
2023/06/21 03:30:32;;;;;;;64.10;46.90;;;;;;;;;;4974696;28;20391;-91
2023/06/21 03:32:58;;;;;;;65.70;46.78;;;;;;;;;;4960904;28;20072;-90
2023/06/21 03:35:28;;;;;;;70.05;49.42;;;;;;;;;;4976701;28;20137;-91
2023/06/21 03:37:57;;;;;;;72.85;50.20;;;;;;;;;;4961478;28;20691;-90
2023/06/21 03:40:25;;;;;;;72.85;50.60;;;;;;;;;;4977924;28;20495;-90
2023/06/21 03:42:52;;;;;;;72.68;51.42;;;;;;;;;;4980407;28;20127;-91
2023/06/21 03:45:18;;;;;;;77.85;51.97;;;;;;;;;;4961509;28;20039;-89
2023/06/21 03:47:44;;;;;;;71.43;49.95;;;;;;;;;;4961100;28;20046;-90
2023/06/21 03:50:11;;;;;;;70.70;49.80;;;;;;;;;;4982552;28;20555;-91
2023/06/21 03:52:38;;;;;;;71.47;50.40;;;;;;;;;;4974244;28;20047;-91
2023/06/21 03:55:05;;;;;;;66.40;48.90;;;;;;;;;;4979702;28;20085;-91
2023/06/21 03:57:31;;;;;;;73.88;51.08;;;;;;;;;;4956994;28;20508;-90
2023/06/21 03:59:57;;;;;;;67.75;48.88;;;;;;;;;;4960304;28;20470;-89
2023/06/21 04:02:24;;;;;;;70.03;48.65;;;;;;;;;;4965097;28;20523;-89
2023/06/21 04:04:50;;;;;;;73.65;50.47;;;;;;;;;;4980229;28;20124;-90
2023/06/21 04:07:21;;;;;;;70.40;51.00;;;;;;;;;;4964819;28;20042;-90
2023/06/21 04:09:47;;;;;;;70.13;50.05;;;;;;;;;;4979624;28;20490;-89
2023/06/21 04:12:14;;;;;;;70.30;50.22;;;;;;;;;;4959614;28;20043;-89
2023/06/21 04:14:39;;;;;;;71.85;51.17;;;;;;;;;;4961860;28;20065;-90
2023/06/21 04:17:06;;;;;;;65.65;48.35;;;;;;;;;;4979445;28;20454;-92
2023/06/21 04:19:32;;;;;;;68.68;49.10;;;;;;;;;;4964138;28;20790;-90
2023/06/21 04:21:58;;;;;;;67.82;48.97;;;;;;;;;;4963799;28;20459;-90
2023/06/21 04:24:24;;;;;;;72.82;50.20;;;;;;;;;;4960902;28;20061;-90
2023/06/21 04:26:50;;;;;;;71.03;50.30;;;;;;;;;;4978145;28;20061;-90
2023/06/21 04:29:20;;;;;;;65.43;47.92;;;;;;;;;;4976361;28;20065;-91
2023/06/21 04:31:46;;;;;;;71.55;49.72;;;;;;;;;;4982199;28;20087;-92
2023/06/21 04:34:12;;;;;;;64.53;47.17;;;;;;;;;;4963727;28;20046;-92
2023/06/21 04:36:38;;;;;;;64.20;48.10;;;;;;;;;;4979196;28;20042;-90
2023/06/21 04:39:05;;;;;;;70.25;49.80;;;;;;;;;;4959864;28;20042;-91
2023/06/21 04:41:31;;;;;;;69.03;50.50;;;;;;;;;;4959790;28;20099;-91
2023/06/21 04:43:57;;;;;;;67.97;47.58;;;;;;;;;;4962683;28;20104;-90
2023/06/21 04:46:30;;;;;;;65.68;47.40;;;;;;;;;;4980600;28;20371;-91
2023/06/21 04:48:56;;;;;;;66.47;48.97;;;;;;;;;;4963462;28;20585;-91
2023/06/21 04:51:22;;;;;;;67.22;47.17;;;;;;;;;;4963201;28;20046;-90
2023/06/21 04:53:48;;;;;;;57.55;44.17;;;;;;;;;;4965652;28;20065;-89
2023/06/21 04:56:15;;;;;;;58.30;44.88;;;;;;;;;;4965807;28;20050;-90
2023/06/21 04:58:44;;;;;;;62.75;45.65;;;;;;;;;;4962410;28;20062;-90
2023/06/21 05:01:10;;;;;;;57.83;44.85;;;;;;;;;;4957299;28;20042;-90
2023/06/21 05:03:36;;;;;;;55.72;44.17;;;;;;;;;;4976978;28;20747;-90
2023/06/21 05:06:02;;;;;;;56.72;43.75;;;;;;;;;;4975571;28;20117;-90
2023/06/21 05:08:28;;;;;;;54.53;42.83;;;;;;;;;;4962846;28;20050;-91
2023/06/21 05:10:54;;;;;;;55.95;43.00;;;;;;;;;;4963768;28;20076;-91
2023/06/21 05:13:20;;;;;;;58.90;44.33;;;;;;;;;;4977777;28;20327;-89
2023/06/21 05:15:46;;;;;;;57.50;41.78;;;;;;;;;;4980380;28;20145;-89
2023/06/21 05:18:13;;;;;;;49.08;39.50;;;;;;;;;;4977375;28;20622;-89
2023/06/21 05:20:39;;;;;;;51.05;39.78;;;;;;;;;;4975987;28;20670;-90
2023/06/21 05:23:05;;;;;;;52.13;39.33;;;;;;;;;;4981927;28;20587;-89
2023/06/21 05:25:31;;;;;;;49.20;37.97;;;;;;;;;;4964532;28;20095;-89
2023/06/21 05:27:57;;;;;;;49.15;37.38;;;;;;;;;;4965137;28;22030;-89
2023/06/21 05:30:23;;;;;;;45.30;37.00;;;;;;;;;;4979045;28;20192;-90
2023/06/21 05:32:49;;;;;;;45.35;34.08;;;;;;;;;;4981065;28;20054;-90
2023/06/21 05:35:15;;;;;;;45.97;34.95;;;;;;;;;;4961872;28;20548;-89
2023/06/21 05:37:41;;;;;;;45.13;35.08;;;;;;;;;;4980842;28;20046;-88
2023/06/21 05:40:08;;;;;;;44.10;33.40;;;;;;;;;;4967253;28;20444;-88
2023/06/21 05:42:35;;;;;;;44.42;35.15;;;;;;;;;;4965894;28;20038;-90
2023/06/21 05:45:01;;;;;;;41.85;33.22;;;;;;;;;;4984504;28;20058;-90
2023/06/21 05:47:27;;;;;;;40.20;32.00;;;;;;;;;;4964101;28;20049;-88
2023/06/21 05:49:53;;;;;;;40.47;30.58;;;;;;;;;;4963913;28;20082;-91
2023/06/21 05:52:19;;;;;;;42.15;33.03;;;;;;;;;;4970018;28;20059;-88
2023/06/21 05:54:45;;;;;;;38.42;30.85;;;;;;;;;;4984569;28;20145;-89
2023/06/21 05:57:12;;;;;;;38.75;30.55;;;;;;;;;;4966266;28;20093;-88
2023/06/21 05:59:38;;;;;;;36.90;30.55;;;;;;;;;;4964038;28;20042;-89
2023/06/21 06:02:05;;;;;;;38.78;29.63;;;;;;;;;;4975534;28;20057;-91
2023/06/21 06:04:31;;;;;;;33.63;27.92;;;;;;;;;;4977769;28;20038;-88
2023/06/21 06:06:58;;;;;;;30.50;25.98;;;;;;;;;;4981411;28;20046;-90
2023/06/21 06:09:30;;;;;;;33.88;26.80;;;;;;;;;;4974487;28;20119;-93
2023/06/21 06:11:56;;;;;;;32.45;26.98;;;;;;;;;;4978075;28;20486;-90
2023/06/21 06:14:25;;;;;;;35.90;27.42;;;;;;;;;;4960560;28;20573;-88
2023/06/21 06:16:52;;;;;;;33.05;27.63;;;;;;;;;;4979219;28;20034;-89
2023/06/21 06:19:18;;;;;;;30.20;23.63;;;;;;;;;;4960613;28;20136;-89
2023/06/21 06:21:44;;;;;;;27.77;21.65;;;;;;;;;;4965527;28;20227;-89
2023/06/21 06:24:10;;;;;;;27.30;22.05;;;;;;;;;;4957129;28;20054;-87
2023/06/21 06:26:36;;;;;;;25.15;20.70;;;;;;;;;;4980587;28;20057;-87
2023/06/21 06:29:02;;;;;;;24.52;20.67;;;;;;;;;;4977884;28;20042;-88
2023/06/21 06:31:29;;;;;;;24.80;20.42;;;;;;;;;;4963922;28;20139;-89
2023/06/21 06:33:55;;;;;;;27.00;19.05;;;;;;;;;;4979269;28;20500;-87
2023/06/21 06:36:22;;;;;;;22.02;17.80;;;;;;;;;;4959546;28;20643;-87
2023/06/21 06:38:51;;;;;;;22.45;17.70;;;;;;;;;;4985379;28;20058;-88
2023/06/21 06:41:18;;;;;;;20.42;16.17;;;;;;;;;;4962202;28;20488;-87
2023/06/21 06:43:44;;;;;;;18.80;15.75;;;;;;;;;;4979693;28;20050;-88
2023/06/21 06:46:10;;;;;;;21.60;14.52;;;;;;;;;;4977265;28;20034;-86
2023/06/21 06:48:36;;;;;;;21.60;14.95;;;;;;;;;;4964519;28;20034;-89
2023/06/21 06:51:02;;;;;;;17.20;13.57;;;;;;;;;;4962809;28;20039;-88
2023/06/21 06:53:28;;;;;;;16.67;12.57;;;;;;;;;;4975991;28;20046;-88
2023/06/21 06:55:55;;;;;;;19.70;13.45;;;;;;;;;;4959672;28;20115;-90
2023/06/21 06:58:22;;;;;;;18.08;12.60;;;;;;;;;;4964573;28;20055;-87
2023/06/21 07:00:48;;;;;;;16.15;12.30;;;;;;;;;;4961351;28;20161;-89
2023/06/21 07:03:14;;;;;;;15.90;12.85;;;;;;;;;;4978340;28;20077;-87
2023/06/21 07:05:44;;;;;;;15.70;11.80;;;;;;;;;;4979757;28;20038;-87
2023/06/21 07:08:11;;;;;;;17.98;11.80;;;;;;;;;;4977700;28;20054;-89
2023/06/21 07:10:37;;;;;;;16.45;10.98;;;;;;;;;;4980899;28;20133;-90
2023/06/21 07:13:03;;;;;;;14.52;10.68;;;;;;;;;;4981651;28;20050;-87
2023/06/21 07:15:29;;;;;;;17.63;9.85;;;;;;;;;;4981849;28;20046;-88
2023/06/21 07:17:55;;;;;;;14.05;9.25;;;;;;;;;;4982772;28;20464;-88
2023/06/21 07:20:21;;;;;;;15.23;9.07;;;;;;;;;;4994308;28;20088;-91
2023/06/21 07:22:48;;;;;;;13.88;9.40;;;;;;;;;;4963324;28;20296;-93
2023/06/21 07:25:19;;;;;;;12.15;8.57;;;;;;;;;;4976215;28;20129;-92
2023/06/21 07:27:49;;;;;;;11.23;8.25;;;;;;;;;;4983484;28;20514;-92
2023/06/21 07:30:16;;;;;;;14.07;8.48;;;;;;;;;;4974665;28;20292;-90
2023/06/21 07:32:42;;;;;;;10.48;8.07;;;;;;;;;;4964473;28;20038;-92
2023/06/21 07:35:09;;;;;;;13.25;9.05;;;;;;;;;;4961472;28;20125;-89
2023/06/21 07:37:35;;;;;;;11.57;8.60;;;;;;;;;;4972391;28;20046;-89
2023/06/21 07:40:02;;;;;;;11.73;8.35;;;;;;;;;;4977879;28;20264;-93
2023/06/21 07:42:28;;;;;;;14.25;8.55;;;;;;;;;;4957540;28;20043;-92
2023/06/21 07:44:55;;;;;;;10.88;7.80;;;;;;;;;;4957797;28;20111;-91
2023/06/21 07:47:22;;;;;;;14.15;8.63;;;;;;;;;;4977715;28;20042;-92
2023/06/21 07:49:48;;;;;;;11.40;8.30;;;;;;;;;;4969985;28;20058;-90
2023/06/21 07:52:14;;;;;;;10.13;7.63;;;;;;;;;;4979879;28;20488;-90
2023/06/21 07:54:42;;;;;;;12.82;8.23;;;;;;;;;;4967944;28;20050;-90
2023/06/21 07:57:09;;;;;;;12.55;8.45;;;;;;;;;;4979145;28;20050;-93
2023/06/21 07:59:35;;;;;;;12.82;7.45;;;;;;;;;;4969026;28;20069;-93
2023/06/21 08:02:01;;;;;;;10.63;7.53;;;;;;;;;;4964293;28;20046;-88
2023/06/21 08:04:27;;;;;;;12.40;7.82;;;;;;;;;;4964164;28;20042;-91
2023/06/21 08:06:53;;;;;;;9.63;7.30;;;;;;;;;;4979408;28;20064;-91
2023/06/21 08:09:19;;;;;;;13.32;7.72;;;;;;;;;;4961638;28;20109;-90
2023/06/21 08:11:45;;;;;;;8.65;7.07;;;;;;;;;;4959848;28;20246;-92
2023/06/21 08:14:11;;;;;;;9.15;6.72;;;;;;;;;;4962960;28;20046;-93
2023/06/21 08:16:37;;;;;;;12.50;6.40;;;;;;;;;;4965264;28;20058;-90
2023/06/21 08:19:04;;;;;;;13.02;6.72;;;;;;;;;;4978416;28;20512;-94
2023/06/21 08:21:30;;;;;;;16.05;7.05;;;;;;;;;;4964666;28;20096;-92
2023/06/21 08:23:56;;;;;;;8.65;7.55;;;;;;;;;;4961123;28;20065;-92
2023/06/21 08:26:22;;;;;;;10.13;6.95;;;;;;;;;;4977033;28;20042;-92
2023/06/21 08:28:48;;;;;;;10.02;6.68;;;;;;;;;;4979821;28;20114;-90
2023/06/21 08:31:14;;;;;;;9.73;6.32;;;;;;;;;;4966163;28;20113;-93
2023/06/21 08:33:40;;;;;;;8.20;6.90;;;;;;;;;;4980429;28;20077;-92
2023/06/21 08:36:07;;;;;;;8.60;6.30;;;;;;;;;;4982805;28;20085;-91
2023/06/21 08:38:33;;;;;;;8.30;6.65;;;;;;;;;;4966773;28;20125;-93
2023/06/21 08:41:02;;;;;;;10.20;6.88;;;;;;;;;;4980251;28;20054;-92
2023/06/21 08:43:28;;;;;;;12.27;6.30;;;;;;;;;;4965193;28;20069;-90
2023/06/21 08:45:55;;;;;;;8.48;6.20;;;;;;;;;;4979866;28;20050;-92
2023/06/21 08:48:22;;;;;;;9.98;7.07;;;;;;;;;;4962128;28;20049;-93
2023/06/21 08:50:50;;;;;;;9.13;6.25;;;;;;;;;;4980223;28;20058;-91
2023/06/21 08:53:20;;;;;;;8.05;6.50;;;;;;;;;;4981359;28;20137;-90
2023/06/21 08:55:48;;;;;;;8.52;5.40;;;;;;;;;;4977864;28;20056;-91
2023/06/21 08:58:16;;;;;;;12.37;5.47;;;;;;;;;;4982906;28;20069;-90
2023/06/21 09:00:47;;;;;;;10.30;6.50;;;;;;;;;;4979923;28;20393;-90
2023/06/21 09:03:24;;;;;;;9.25;5.90;;;;;;;;;;4962562;28;20607;-91
2023/06/21 09:05:53;;;;;;;11.20;5.93;;;;;;;;;;4979852;28;20444;-92
2023/06/21 09:08:19;;;;;;;7.65;5.30;;;;;;;;;;4972531;28;20058;-92
2023/06/21 09:10:51;;;;;;;9.07;5.50;;;;;;;;;;4980054;28;20035;-91
2023/06/21 09:13:18;;;;;;;5.35;4.80;;;;;;;;;;4979307;28;20586;-94
2023/06/21 09:15:48;;;;;;;9.63;5.07;;;;;;;;;;4978356;28;20145;-93
2023/06/21 09:18:18;;;;;;;9.45;5.43;;;;;;;;;;4977233;28;20401;-93
2023/06/21 09:20:48;;;;;;;7.22;5.55;;;;;;;;;;4980067;28;20051;-91
2023/06/21 09:23:15;;;;;;;8.40;4.85;;;;;;;;;;4965367;28;20420;-92
2023/06/21 09:25:42;;;;;;;7.82;4.70;;;;;;;;;;4971532;28;20069;-90
2023/06/21 09:28:08;;;;;;;8.27;4.77;;;;;;;;;;4960386;28;20082;-90
2023/06/21 09:30:34;;;;;;;6.10;4.47;;;;;;;;;;4964450;28;20050;-90
2023/06/21 09:33:00;;;;;;;6.10;4.05;;;;;;;;;;4981504;28;20477;-91
2023/06/21 09:35:26;;;;;;;9.27;4.70;;;;;;;;;;4982195;28;20528;-91
2023/06/21 09:37:52;;;;;;;7.28;4.20;;;;;;;;;;4976619;28;20049;-92
2023/06/21 09:40:19;;;;;;;6.43;3.70;;;;;;;;;;4964272;28;20129;-90
2023/06/21 09:42:45;;;;;;;6.88;3.80;;;;;;;;;;4965708;28;20589;-92
2023/06/21 09:45:12;;;;;;;7.10;3.97;;;;;;;;;;4977760;28;20050;-92
2023/06/21 09:47:41;;;;;;;5.13;3.67;;;;;;;;;;4980863;28;20181;-91
2023/06/21 09:50:08;;;;;;;5.10;3.45;;;;;;;;;;4979590;28;20050;-91
2023/06/21 09:52:34;;;;;;;4.82;3.33;;;;;;;;;;4976927;28;20406;-91
2023/06/21 09:55:00;;;;;;;7.95;3.38;;;;;;;;;;4981209;28;20514;-92
2023/06/21 09:57:30;;;;;;;5.53;2.90;;;;;;;;;;4965495;28;20054;-91
2023/06/21 09:59:57;;;;;;;6.00;2.67;;;;;;;;;;4976518;28;20100;-92
2023/06/21 10:02:23;;;;;;;5.97;3.72;;;;;;;;;;4981247;28;20054;-92
2023/06/21 10:04:54;;;;;;;7.28;3.22;;;;;;;;;;4964745;28;20120;-90
2023/06/21 10:07:20;;;;;;;6.95;2.90;;;;;;;;;;4963767;28;20066;-92
2023/06/21 10:09:47;;;;;;;6.22;3.17;;;;;;;;;;4981928;28;20140;-92
2023/06/21 10:12:14;;;;;;;6.53;2.50;;;;;;;;;;4976508;28;20050;-93
2023/06/21 10:14:40;;;;;;;6.00;3.20;;;;;;;;;;4975832;28;20050;-93
2023/06/21 10:17:06;;;;;;;3.22;2.60;;;;;;;;;;4963725;28;20050;-91
2023/06/21 10:19:33;;;;;;;4.07;2.40;;;;;;;;;;4977173;28;20051;-90
2023/06/21 10:22:01;;;;;;;4.70;2.10;;;;;;;;;;4963799;28;20413;-91
2023/06/21 10:24:30;;;;;;;5.50;2.40;;;;;;;;;;4982410;28;20050;-91
2023/06/21 10:26:57;;;;;;;7.20;2.70;;;;;;;;;;4981226;28;20062;-92
2023/06/21 10:29:24;;;;;;;4.63;2.55;;;;;;;;;;4976530;28;20092;-92
2023/06/21 10:31:51;;;;;;;8.88;2.80;;;;;;;;;;4983999;28;20494;-93
2023/06/21 10:34:22;;;;;;;3.22;2.17;;;;;;;;;;4981032;28;20038;-92
2023/06/21 10:36:51;;;;;;;4.85;2.20;;;;;;;;;;4982601;28;20077;-89
2023/06/21 10:39:23;;;;;;;3.20;2.17;;;;;;;;;;4985928;28;20049;-90
2023/06/21 10:41:52;;;;;;;5.18;2.10;;;;;;;;;;4992838;28;20456;-92
2023/06/21 10:44:19;;;;;;;3.28;2.45;;;;;;;;;;4979087;28;20038;-90
2023/06/21 10:46:46;;;;;;;5.45;2.40;;;;;;;;;;4965908;28;20042;-92
2023/06/21 10:49:12;;;;;;;6.15;2.40;;;;;;;;;;4982970;28;20141;-92
2023/06/21 10:51:40;;;;;;;5.35;2.30;;;;;;;;;;4983865;28;20478;-90
2023/06/21 10:54:06;;;;;;;3.47;2.05;;;;;;;;;;4967202;28;20536;-91
2023/06/21 10:56:33;;;;;;;7.25;2.70;;;;;;;;;;4965628;28;20054;-91
2023/06/21 10:59:02;;;;;;;5.57;2.67;;;;;;;;;;4981561;28;20157;-91
2023/06/21 11:01:28;;;;;;;3.83;1.92;;;;;;;;;;4967925;28;20054;-92
2023/06/21 11:03:54;;;;;;;6.95;2.38;;;;;;;;;;4982356;28;20502;-91
2023/06/21 11:06:28;;;;;;;3.25;2.10;;;;;;;;;;4967238;28;20446;-91
2023/06/21 11:08:54;;;;;;;3.58;1.83;;;;;;;;;;4986391;28;20527;-93
2023/06/21 11:11:28;;;;;;;5.43;2.00;;;;;;;;;;4961405;28;20059;-94
2023/06/21 11:13:54;;;;;;;4.68;1.88;;;;;;;;;;4969509;28;20049;-92
2023/06/21 11:16:20;;;;;;;3.35;1.80;;;;;;;;;;4984727;28;20517;-93
2023/06/21 11:18:55;;;;;;;2.60;1.40;;;;;;;;;;4982666;28;20045;-92
2023/06/21 11:21:48;;;;;;;2.78;1.60;;;;;;;;;;4983057;28;20386;-92
2023/06/21 11:24:18;;;;;;;3.08;1.80;;;;;;;;;;4998996;28;20069;-91
2023/06/21 11:26:53;;;;;;;3.45;1.90;;;;;;;;;;4983773;28;20133;-93
2023/06/21 11:29:19;;;;;;;2.08;1.42;;;;;;;;;;4984292;28;20101;-91
2023/06/21 11:31:45;;;;;;;5.13;1.80;;;;;;;;;;4982775;28;20046;-90
2023/06/21 11:34:25;;;;;;;2.63;1.70;;;;;;;;;;4981569;28;20046;-93
2023/06/21 11:36:51;;;;;;;2.13;1.63;;;;;;;;;;4963569;28;20119;-91
2023/06/21 11:39:17;;;;;;;3.75;2.10;;;;;;;;;;4979257;28;20034;-91
2023/06/21 11:41:47;;;;;;;4.85;1.85;;;;;;;;;;4965802;28;20058;-92
2023/06/21 11:44:14;;;;;;;3.78;1.52;;;;;;;;;;4984753;28;20053;-91
2023/06/21 11:46:42;;;;;;;3.20;1.70;;;;;;;;;;4978186;28;20046;-93
2023/06/21 11:49:08;;;;;;;3.42;1.67;;;;;;;;;;4966160;28;20069;-91
2023/06/21 11:51:35;;;;;;;2.63;1.20;;;;;;;;;;4987758;28;20041;-93
2023/06/21 11:54:01;;;;;;;3.28;1.60;;;;;;;;;;4978336;28;20047;-91
2023/06/21 11:56:31;;;;;;;5.13;2.03;;;;;;;;;;4963181;28;20065;-92
2023/06/21 11:58:58;;;;;;;4.20;1.92;;;;;;;;;;4980337;28;20050;-92
2023/06/21 12:01:24;;;;;;;2.25;1.55;;;;;;;;;;4981309;28;20046;-91
2023/06/21 12:04:00;;;;;;;3.58;1.65;;;;;;;;;;4964950;28;20050;-92
2023/06/21 12:06:29;;;;;;;2.17;1.77;;;;;;;;;;4979352;28;20107;-93
2023/06/21 12:08:59;;;;;;;4.78;1.90;;;;;;;;;;4993968;28;20054;-91
2023/06/21 12:11:28;;;;;;;2.63;1.70;;;;;;;;;;4982952;28;20091;-92
2023/06/21 12:13:54;;;;;;;2.90;2.08;;;;;;;;;;4963460;28;20085;-92
2023/06/21 12:16:25;;;;;;;3.55;2.00;;;;;;;;;;4963445;28;20548;-92
2023/06/21 12:18:51;;;;;;;3.20;1.63;;;;;;;;;;4981067;28;20062;-89
2023/06/21 12:21:17;;;;;;;3.20;1.92;;;;;;;;;;4956829;28;20099;-91
2023/06/21 12:23:43;;;;;;;3.78;1.92;;;;;;;;;;4960628;28;20085;-90
2023/06/21 12:26:18;;;;;;;2.60;1.92;;;;;;;;;;4966456;28;20118;-91
2023/06/21 12:28:46;;;;;;;4.70;2.05;;;;;;;;;;4979779;28;20050;-94
2023/06/21 12:31:17;;;;;;;4.57;1.88;;;;;;;;;;4979124;28;20498;-91
2023/06/21 12:33:43;;;;;;;3.10;2.40;;;;;;;;;;4977488;28;20103;-92
2023/06/21 12:36:17;;;;;;;2.92;2.03;;;;;;;;;;4979226;28;20045;-91
2023/06/21 12:39:04;;;;;;;3.38;2.25;;;;;;;;;;4962459;28;20262;-90
2023/06/21 12:41:32;;;;;;;2.97;2.17;;;;;;;;;;4977470;28;20047;-93
2023/06/21 12:43:59;;;;;;;4.03;2.17;;;;;;;;;;4979940;28;20042;-92
2023/06/21 12:46:25;;;;;;;2.67;1.90;;;;;;;;;;4981137;28;20670;-93
2023/06/21 12:48:52;;;;;;;3.72;1.85;;;;;;;;;;4981415;28;20039;-90
2023/06/21 12:51:23;;;;;;;5.40;2.70;;;;;;;;;;4962541;28;20050;-92
2023/06/21 12:53:54;;;;;;;6.53;2.35;;;;;;;;;;4979435;28;20316;-91
2023/06/21 12:56:20;;;;;;;3.58;1.73;;;;;;;;;;4983112;28;20062;-92
2023/06/21 12:58:46;;;;;;;4.38;2.00;;;;;;;;;;4979227;28;20054;-93
2023/06/21 13:01:12;;;;;;;3.38;2.13;;;;;;;;;;4979440;28;20120;-91
2023/06/21 13:03:38;;;;;;;3.97;2.15;;;;;;;;;;4964414;28;20066;-92
2023/06/21 13:06:04;;;;;;;2.85;1.80;;;;;;;;;;4978132;28;20551;-92
2023/06/21 13:08:31;;;;;;;2.83;1.80;;;;;;;;;;4981884;28;20390;-89
2023/06/21 13:10:58;;;;;;;3.25;1.70;;;;;;;;;;4980073;28;20076;-92
2023/06/21 13:13:25;;;;;;;4.07;1.43;;;;;;;;;;4960988;28;20043;-90
2023/06/21 13:15:52;;;;;;;2.83;1.75;;;;;;;;;;4963917;28;20058;-93
2023/06/21 13:18:18;;;;;;;2.90;1.58;;;;;;;;;;4979635;28;20049;-92
2023/06/21 13:20:44;;;;;;;1.75;1.50;;;;;;;;;;4977124;28;20216;-94
2023/06/21 13:23:10;;;;;;;2.35;1.50;;;;;;;;;;4975673;28;20125;-92
2023/06/21 13:25:36;;;;;;;2.65;1.77;;;;;;;;;;4953267;28;20115;-90
2023/06/21 13:28:02;;;;;;;3.58;1.80;;;;;;;;;;4980379;28;20042;-91
2023/06/21 13:30:28;;;;;;;2.80;1.80;;;;;;;;;;4980600;28;20042;-91
2023/06/21 13:32:54;;;;;;;2.83;1.75;;;;;;;;;;4962734;28;20065;-92
2023/06/21 13:35:20;;;;;;;2.97;1.33;;;;;;;;;;4977854;28;20046;-90
2023/06/21 13:37:46;;;;;;;2.40;1.48;;;;;;;;;;4980421;28;20085;-91
2023/06/21 13:40:13;;;;;;;2.47;1.67;;;;;;;;;;4980944;28;20055;-93
2023/06/21 13:42:39;;;;;;;4.07;1.52;;;;;;;;;;4962181;28;20119;-92
2023/06/21 13:45:05;;;;;;;4.88;1.60;;;;;;;;;;4972375;28;20085;-93
2023/06/21 13:47:31;;;;;;;2.42;1.55;;;;;;;;;;4980093;28;20129;-92
2023/06/21 13:50:00;;;;;;;2.65;1.50;;;;;;;;;;4966538;28;20149;-91
2023/06/21 13:52:31;;;;;;;5.93;1.55;;;;;;;;;;4982811;28;20053;-92
2023/06/21 13:54:57;;;;;;;4.45;1.40;;;;;;;;;;4964522;28;20069;-91
2023/06/21 13:57:26;;;;;;;2.72;1.70;;;;;;;;;;4981968;28;20054;-91
2023/06/21 13:59:52;;;;;;;5.50;1.70;;;;;;;;;;4985922;28;20524;-92
2023/06/21 14:02:18;;;;;;;3.63;1.85;;;;;;;;;;4984719;28;20042;-91
2023/06/21 14:04:45;;;;;;;4.28;1.60;;;;;;;;;;4982374;28;20050;-91
2023/06/21 14:07:11;;;;;;;3.90;1.60;;;;;;;;;;4968489;28;20107;-91
2023/06/21 14:09:38;;;;;;;5.25;1.50;;;;;;;;;;4966123;28;20046;-92
2023/06/21 14:12:05;;;;;;;2.08;1.30;;;;;;;;;;4964148;28;20115;-89
2023/06/21 14:14:31;;;;;;;4.13;1.52;;;;;;;;;;4980475;28;20054;-91
2023/06/21 14:16:57;;;;;;;2.95;1.30;;;;;;;;;;4982576;28;20164;-92
2023/06/21 14:19:23;;;;;;;1.90;1.35;;;;;;;;;;4966188;28;20093;-93
2023/06/21 14:21:49;;;;;;;3.08;1.33;;;;;;;;;;4970371;28;20061;-90
2023/06/21 14:24:15;;;;;;;5.43;1.65;;;;;;;;;;4984838;28;20615;-91
2023/06/21 14:26:41;;;;;;;4.90;1.60;;;;;;;;;;4961766;28;20050;-92
2023/06/21 14:29:07;;;;;;;2.25;1.50;;;;;;;;;;4979325;28;20516;-92
2023/06/21 14:31:34;;;;;;;5.85;1.40;;;;;;;;;;4981364;28;20070;-92